createdAt,value
2022-08-26T00:03:16.622Z,20.92
2022-08-26T00:08:23.697Z,21.08
2022-08-26T00:13:31.438Z,21.10
2022-08-26T00:18:38.921Z,21.04
2022-08-26T00:23:45.933Z,21.40
2022-08-26T00:28:53.601Z,21.01
2022-08-26T00:33:58.445Z,20.86
2022-08-26T00:39:03.481Z,21.05
2022-08-26T00:44:11.638Z,21.04
2022-08-26T00:49:19.937Z,20.91
2022-08-26T00:54:28.334Z,20.50
2022-08-26T00:59:36.434Z,20.61
2022-08-26T01:04:47.479Z,20.45
2022-08-26T01:09:52.536Z,20.47
2022-08-26T01:15:00.144Z,20.49
2022-08-26T01:20:13.267Z,20.33
2022-08-26T01:25:22.136Z,20.29
2022-08-26T01:30:28.109Z,20.18
2022-08-26T01:35:33.732Z,20.23
2022-08-26T01:40:43.821Z,20.16
2022-08-26T01:45:50.970Z,20.06
2022-08-26T01:50:57.488Z,20.13
2022-08-26T01:56:06.815Z,20.11
2022-08-26T02:01:13.685Z,20.10
2022-08-26T02:06:19.695Z,20.17
2022-08-26T02:11:27.386Z,19.97
2022-08-26T02:16:37.458Z,20.16
2022-08-26T02:21:43.849Z,20.06
2022-08-26T02:26:52.002Z,20.16
2022-08-26T02:31:57.712Z,20.21
2022-08-26T02:37:05.535Z,20.23
2022-08-26T02:42:13.766Z,20.35
2022-08-26T02:47:19.692Z,20.32
2022-08-26T02:52:29.861Z,19.98
2022-08-26T02:57:37.698Z,19.87
2022-08-26T03:02:42.912Z,19.86
2022-08-26T03:07:48.048Z,19.88
2022-08-26T03:12:55.675Z,20.16
2022-08-26T03:18:01.372Z,20.13
2022-08-26T03:23:08.083Z,20.07
2022-08-26T03:28:16.795Z,19.85
2022-08-26T03:33:24.526Z,19.68
2022-08-26T03:38:29.756Z,19.52
2022-08-26T03:43:37.443Z,19.66
2022-08-26T03:48:43.285Z,19.84
2022-08-26T03:53:49.396Z,19.75
2022-08-26T03:58:57.324Z,19.83
2022-08-26T04:04:03.264Z,19.74
2022-08-26T04:09:10.876Z,19.77
2022-08-26T04:14:20.787Z,19.81
2022-08-26T04:19:26.967Z,19.82
2022-08-26T04:24:32.015Z,19.59
2022-08-26T04:29:41.624Z,19.77
2022-08-26T04:34:46.525Z,19.71
2022-08-26T04:39:55.678Z,19.76
2022-08-26T04:45:05.928Z,19.75
2022-08-26T04:50:15.664Z,19.66
2022-08-26T04:55:38.738Z,19.49
2022-08-26T05:00:49.608Z,19.44
2022-08-26T05:05:54.831Z,19.50
2022-08-26T05:10:59.784Z,19.65
2022-08-26T05:16:11.642Z,20.01
2022-08-26T05:21:21.662Z,19.87
2022-08-26T05:26:30.111Z,20.20
2022-08-26T05:31:38.582Z,20.28
2022-08-26T05:36:43.620Z,20.28
2022-08-26T05:41:49.076Z,20.58
2022-08-26T05:46:56.678Z,20.71
2022-08-26T05:52:02.346Z,20.84
2022-08-26T05:57:07.744Z,20.91
2022-08-26T06:02:16.507Z,20.97
2022-08-26T06:07:42.976Z,21.20
2022-08-26T06:12:48.225Z,21.89
2022-08-26T06:17:55.727Z,22.47
2022-08-26T06:23:13.041Z,22.89
2022-08-26T06:28:17.963Z,23.60
2022-08-26T06:33:28.102Z,25.49
2022-08-26T06:38:33.163Z,24.85
2022-08-26T06:43:38.542Z,28.43
2022-08-26T06:48:47.348Z,29.69
2022-08-26T06:53:55.211Z,30.18
2022-08-26T06:59:00.621Z,31.41
2022-08-26T07:04:10.835Z,31.56
2022-08-26T07:09:15.955Z,32.13
2022-08-26T07:14:21.870Z,32.52
2022-08-26T07:19:31.632Z,32.74
2022-08-26T07:24:38.598Z,32.94
2022-08-26T07:29:44.965Z,30.45
2022-08-26T07:34:52.906Z,31.54
2022-08-26T07:39:58.254Z,31.52
2022-08-26T07:45:03.559Z,31.19
2022-08-26T07:50:12.019Z,31.49
2022-08-26T07:55:17.910Z,31.83
2022-08-26T08:00:23.115Z,30.39
2022-08-26T08:05:33.751Z,31.63
2022-08-26T08:10:40.347Z,31.67
2022-08-26T08:15:45.501Z,29.90
2022-08-26T08:20:59.478Z,30.58
2022-08-26T08:26:12.334Z,31.35
2022-08-26T08:31:52.433Z,31.71
2022-08-26T08:36:54.258Z,32.06
2022-08-26T08:42:24.939Z,30.46
2022-08-26T08:47:35.230Z,32.10
2022-08-26T08:52:46.861Z,30.96
2022-08-26T08:58:03.363Z,29.13
2022-08-26T09:03:20.542Z,28.86
2022-08-26T09:08:35.227Z,28.42
2022-08-26T09:13:42.410Z,30.25
2022-08-26T09:19:01.944Z,29.79
2022-08-26T09:24:14.814Z,29.40
2022-08-26T09:29:27.821Z,29.54
2022-08-26T09:34:33.258Z,29.99
2022-08-26T09:39:42.237Z,28.71
2022-08-26T09:44:59.541Z,29.46
2022-08-26T09:50:09.827Z,28.94
2022-08-26T09:55:24.035Z,28.03
2022-08-26T10:00:34.092Z,28.40
2022-08-26T10:05:45.358Z,28.64
2022-08-26T10:10:56.497Z,28.62
2022-08-26T10:16:10.743Z,28.38
2022-08-26T10:21:22.349Z,27.94
2022-08-26T10:26:36.455Z,27.47
2022-08-26T10:31:47.864Z,27.41
2022-08-26T10:37:14.151Z,26.68
2022-08-26T10:42:29.109Z,26.65
2022-08-26T10:47:40.158Z,25.48
2022-08-26T10:52:58.724Z,24.27
2022-08-26T10:58:27.510Z,24.77
2022-08-26T11:03:41.122Z,26.28
2022-08-26T11:08:49.612Z,25.47
2022-08-26T11:14:08.495Z,25.93
2022-08-26T11:19:56.814Z,26.57
2022-08-26T11:25:13.026Z,25.60
2022-08-26T11:30:47.755Z,25.57
2022-08-26T11:36:11.967Z,25.89
2022-08-26T11:41:29.359Z,25.60
2022-08-26T11:46:37.802Z,26.37
2022-08-26T11:51:48.135Z,26.65
2022-08-26T11:56:55.286Z,27.04
2022-08-26T12:02:03.809Z,27.49
2022-08-26T12:07:11.646Z,26.98
2022-08-26T12:12:19.390Z,27.84
2022-08-26T12:17:30.511Z,28.10
2022-08-26T12:22:38.940Z,28.52
2022-08-26T12:27:53.587Z,28.71
2022-08-26T12:33:22.885Z,28.77
2022-08-26T12:38:29.823Z,28.93
2022-08-26T12:43:44.281Z,29.10
2022-08-26T12:48:53.505Z,29.78
2022-08-26T12:54:02.478Z,29.23
2022-08-26T12:59:13.407Z,29.87
2022-08-26T13:04:46.340Z,30.62
2022-08-26T13:09:52.543Z,30.53
2022-08-26T13:14:58.858Z,30.81
2022-08-26T13:20:07.061Z,31.17
2022-08-26T13:25:13.255Z,30.40
2022-08-26T13:30:18.370Z,30.88
2022-08-26T13:35:26.047Z,30.45
2022-08-26T13:40:34.453Z,30.21
2022-08-26T13:45:39.798Z,30.04
2022-08-26T13:50:48.198Z,29.85
2022-08-26T13:55:53.763Z,30.19
2022-08-26T14:01:00.101Z,30.01
2022-08-26T14:06:07.915Z,30.55
2022-08-26T14:11:13.049Z,30.28
2022-08-26T14:16:24.157Z,30.25
2022-08-26T14:21:34.183Z,30.40
2022-08-26T14:26:39.114Z,29.96
2022-08-26T14:31:44.232Z,30.01
2022-08-26T14:36:51.929Z,30.75
2022-08-26T14:41:59.085Z,29.68
2022-08-26T14:47:07.287Z,29.10
2022-08-26T14:52:14.828Z,29.03
2022-08-26T14:57:21.513Z,27.16
2022-08-26T15:02:32.688Z,27.14
2022-08-26T15:07:41.446Z,27.18
2022-08-26T15:12:46.911Z,27.25
2022-08-26T15:17:51.937Z,25.85
2022-08-26T15:23:03.297Z,25.97
2022-08-26T15:28:11.104Z,26.51
2022-08-26T15:33:16.129Z,25.92
2022-08-26T15:38:25.801Z,24.85
2022-08-26T15:43:30.820Z,25.25
2022-08-26T15:48:35.756Z,25.62
2022-08-26T15:53:43.420Z,24.91
2022-08-26T15:58:49.158Z,25.08
2022-08-26T16:03:55.113Z,25.13
2022-08-26T16:09:03.181Z,25.39
2022-08-26T16:14:09.164Z,24.12
2022-08-26T16:19:14.439Z,24.15
2022-08-26T16:24:28.392Z,24.96
2022-08-26T16:29:35.691Z,24.99
2022-08-26T16:34:47.132Z,24.97
2022-08-26T16:40:04.662Z,24.44
2022-08-26T16:45:11.011Z,24.20
2022-08-26T16:50:16.308Z,24.18
2022-08-26T16:55:25.367Z,24.14
2022-08-26T17:00:32.359Z,23.91
2022-08-26T17:05:37.522Z,24.29
2022-08-26T17:10:45.046Z,23.96
2022-08-26T17:15:58.382Z,23.96
2022-08-26T17:21:06.917Z,23.77
2022-08-26T17:26:15.101Z,23.76
2022-08-26T17:31:20.488Z,23.62
2022-08-26T17:36:27.642Z,23.69
2022-08-26T17:41:35.791Z,23.81
2022-08-26T17:46:43.956Z,23.93
2022-08-26T17:51:49.711Z,23.73
2022-08-26T17:56:57.330Z,23.13
2022-08-26T18:02:02.453Z,22.51
2022-08-26T18:07:07.663Z,22.46
2022-08-26T18:12:17.603Z,22.92
2022-08-26T18:17:22.648Z,22.84
2022-08-26T18:22:27.827Z,22.74
2022-08-26T18:27:36.230Z,22.99
2022-08-26T18:32:41.194Z,22.76
2022-08-26T18:37:46.967Z,22.61
2022-08-26T18:42:54.660Z,22.59
2022-08-26T18:48:02.669Z,22.59
2022-08-26T18:53:07.613Z,22.02
2022-08-26T18:58:16.492Z,22.50
2022-08-26T19:03:21.720Z,22.86
2022-08-26T19:08:26.659Z,21.82
2022-08-26T19:13:34.190Z,21.94
2022-08-26T19:18:39.272Z,22.25
2022-08-26T19:23:44.427Z,21.69
2022-08-26T19:28:51.893Z,21.99
2022-08-26T19:33:58.077Z,21.80
2022-08-26T19:39:07.701Z,22.21
2022-08-26T19:44:34.357Z,22.39
2022-08-26T19:49:40.070Z,22.29
2022-08-26T19:54:44.976Z,22.46
2022-08-26T19:59:52.496Z,22.63
2022-08-26T20:04:57.674Z,22.60
2022-08-26T20:10:03.917Z,22.12
2022-08-26T20:15:14.540Z,22.12
2022-08-26T20:20:35.075Z,22.50
2022-08-26T20:25:41.108Z,22.27
2022-08-26T20:30:49.744Z,22.28
2022-08-26T20:35:54.806Z,22.23
2022-08-26T20:40:59.990Z,22.25
2022-08-26T20:46:10.367Z,22.19
2022-08-26T20:51:20.723Z,22.46
2022-08-26T20:56:26.667Z,22.39
2022-08-26T21:01:42.044Z,22.10
2022-08-26T21:06:52.604Z,22.05
2022-08-26T21:11:59.316Z,22.10
2022-08-26T21:17:07.222Z,21.88
2022-08-26T21:22:12.653Z,22.00
2022-08-26T21:27:21.333Z,22.10
2022-08-26T21:32:34.303Z,22.08
2022-08-26T21:37:39.461Z,22.03
2022-08-26T21:42:44.520Z,21.91
2022-08-26T21:47:52.171Z,21.91
2022-08-26T21:52:57.089Z,21.97
2022-08-26T21:58:02.470Z,21.87
2022-08-26T22:03:10.123Z,21.81
2022-08-26T22:08:15.753Z,21.91
2022-08-26T22:13:21.436Z,21.42
2022-08-26T22:18:30.018Z,21.54
2022-08-26T22:23:35.569Z,21.72
2022-08-26T22:28:41.050Z,21.53
2022-08-26T22:33:48.749Z,21.40
2022-08-26T22:38:54.057Z,21.27
2022-08-26T22:43:59.171Z,21.27
2022-08-26T22:49:07.328Z,21.24
2022-08-26T22:54:12.280Z,20.98
2022-08-26T22:59:19.690Z,21.27
2022-08-26T23:04:27.413Z,21.40
2022-08-26T23:09:32.405Z,20.87
2022-08-26T23:14:37.481Z,20.88
2022-08-26T23:19:45.464Z,20.79
2022-08-26T23:24:50.555Z,20.80
2022-08-26T23:29:55.678Z,21.03
2022-08-26T23:35:03.333Z,21.23
2022-08-26T23:40:12.370Z,21.35
2022-08-26T23:45:22.220Z,21.08
2022-08-26T23:50:44.430Z,20.89
2022-08-26T23:55:51.027Z,20.83
